Time;durP1;ratioP1;P1;durP2;ratioP2;P2;SDS_P1;SDS_P2;PMS_P1;PMS_P2;Temp;Humidity;BMP_temperature;BMP_pressure;BME280_temperature;BME280_humidity;BME280_pressure;Samples;Min_cycle;Max_cycle;Signal;HPM_P1;HPM_P2
2022/06/18 00:01:34;;;;;;;2.53;2.33;;;;;;;19.27;64.59;97180.19;5075197;28;20194;-51
2022/06/18 00:04:11;;;;;;;4.40;2.42;;;;;;;19.23;65.46;97184.28;5073129;28;20195;-50
2022/06/18 00:06:39;;;;;;;2.30;2.20;;;;;;;19.18;66.33;97180.47;5075062;28;20225;-50
2022/06/18 00:09:06;;;;;;;2.58;2.38;;;;;;;19.07;65.99;97175.56;5073996;28;20235;-49
2022/06/18 00:14:18;;;;;;;2.60;2.40;;;;;;;19.12;65.40;97175.84;5058652;28;20206;-50
2022/06/18 00:16:46;;;;;;;2.92;2.50;;;;;;;19.04;65.69;97176.75;5065700;28;20318;-49
2022/06/18 00:19:14;;;;;;;3.88;2.67;;;;;;;18.93;66.91;97177.19;5057230;28;20707;-49
2022/06/18 00:21:40;;;;;;;2.95;2.55;;;;;;;18.99;66.36;97186.38;5057770;28;20290;-50
2022/06/18 00:24:17;;;;;;;4.18;3.75;;;;;;;18.91;66.47;97181.09;5063439;28;20222;-50
2022/06/18 00:26:45;;;;;;;6.63;5.95;;;;;;;18.93;65.81;97192.44;5070911;28;20191;-50
2022/06/18 00:29:14;;;;;;;4.85;4.45;;;;;;;18.87;67.16;97178.78;5078101;28;20238;-50
2022/06/18 00:31:41;;;;;;;2.80;2.60;;;;;;;18.93;66.35;97177.19;5076249;28;20195;-49
2022/06/18 00:34:07;;;;;;;2.78;2.55;;;;;;;18.92;66.92;97185.44;5086815;28;20203;-50
2022/06/18 00:36:36;;;;;;;3.17;2.88;;;;;;;18.89;66.61;97174.06;5079740;28;20674;-50
2022/06/18 00:39:04;;;;;;;2.88;2.67;;;;;;;18.84;65.96;97176.47;5067587;28;20242;-50
2022/06/18 00:41:33;;;;;;;4.28;2.80;;;;;;;18.84;66.30;97168.44;5093848;28;20206;-51
2022/06/18 00:44:04;;;;;;;2.38;2.28;;;;;;;18.82;66.71;97159.72;5087586;28;20227;-50
2022/06/18 00:46:35;;;;;;;2.90;2.70;;;;;;;18.77;67.79;97162.13;5069347;28;20245;-50
2022/06/18 00:49:05;;;;;;;3.00;2.70;;;;;;;18.73;67.45;97160.81;5056073;28;20199;-49
2022/06/18 00:51:38;;;;;;;2.55;2.40;;;;;;;18.74;68.00;97165.13;5055980;28;20727;-50
2022/06/18 00:54:08;;;;;;;3.47;2.55;;;;;;;18.70;67.15;97161.19;5056260;28;20231;-49
2022/06/18 00:56:39;;;;;;;4.00;2.60;;;;;;;18.72;66.79;97163.66;5056350;28;20321;-48
2022/06/18 00:59:14;;;;;;;2.80;2.60;;;;;;;18.66;68.73;97169.75;5055450;28;20229;-48
2022/06/18 01:01:45;;;;;;;3.08;2.83;;;;;;;18.68;68.06;97163.19;5056741;28;20222;-49
2022/06/18 01:04:23;;;;;;;4.05;2.75;;;;;;;18.66;68.97;97164.41;5056873;28;20213;-49
2022/06/18 01:07:00;;;;;;;2.63;2.53;;;;;;;18.61;68.53;97154.22;5056225;28;20310;-49
2022/06/18 01:09:27;;;;;;;2.65;2.53;;;;;;;18.59;68.29;97158.94;5055917;28;20221;-49
2022/06/18 01:11:54;;;;;;;2.80;2.70;;;;;;;18.55;69.87;97154.94;5055538;28;20211;-50
2022/06/18 01:14:22;;;;;;;2.97;2.78;;;;;;;18.56;69.12;97158.47;5055468;28;20202;-49
2022/06/18 01:16:48;;;;;;;3.67;2.80;;;;;;;18.51;70.54;97150.97;5055803;28;20241;-49
2022/06/18 01:19:21;;;;;;;2.70;2.50;;;;;;;18.42;71.41;97158.19;5054405;28;20203;-49
2022/06/18 01:21:56;;;;;;;2.97;2.78;;;;;;;18.36;71.93;97153.53;5055671;28;20643;-51
2022/06/18 01:24:32;;;;;;;3.30;3.00;;;;;;;18.40;70.56;97154.03;5042044;28;20211;-49
2022/06/18 01:27:00;;;;;;;3.00;2.80;;;;;;;18.40;70.96;97154.84;5050303;28;20199;-49
2022/06/18 01:29:27;;;;;;;3.08;2.78;;;;;;;18.40;69.84;97154.03;5055607;28;20293;-49
2022/06/18 01:31:56;;;;;;;3.15;2.78;;;;;;;18.39;70.20;97157.69;5055728;28;20207;-49
2022/06/18 01:34:26;;;;;;;3.60;2.90;;;;;;;18.26;72.45;97152.97;5055051;28;20222;-49
2022/06/18 01:36:54;;;;;;;3.20;2.90;;;;;;;18.40;70.13;97152.19;5055546;28;20665;-49
2022/06/18 01:39:26;;;;;;;3.22;3.03;;;;;;;18.39;70.81;97150.50;5056815;28;20207;-48
2022/06/18 01:41:57;;;;;;;3.60;3.03;;;;;;;18.35;70.72;97145.72;5055961;28;20207;-49
2022/06/18 01:44:28;;;;;;;3.22;3.03;;;;;;;18.34;70.14;97146.72;5056290;28;20199;-49
2022/06/18 01:46:57;;;;;;;3.33;2.90;;;;;;;18.30;70.69;97140.03;5056365;28;20329;-50
2022/06/18 01:49:29;;;;;;;3.58;2.67;;;;;;;18.25;72.82;97140.56;5056235;28;20211;-49
2022/06/18 01:51:58;;;;;;;3.45;3.17;;;;;;;18.30;71.72;97138.22;5062480;28;20693;-49
2022/06/18 01:54:30;;;;;;;4.03;3.05;;;;;;;18.20;72.49;97139.47;5075849;28;20289;-50
2022/06/18 01:56:59;;;;;;;3.30;3.10;;;;;;;18.20;73.55;97137.63;5076753;28;20225;-49
2022/06/18 01:59:29;;;;;;;3.25;3.00;;;;;;;18.11;75.16;97137.84;5061372;28;20199;-50
2022/06/18 02:01:56;;;;;;;3.95;3.42;;;;;;;18.08;75.92;97148.91;5056265;28;20257;-49
2022/06/18 02:04:24;;;;;;;3.30;3.10;;;;;;;18.10;75.05;97150.41;5055770;28;20293;-49
2022/06/18 02:06:52;;;;;;;4.22;3.72;;;;;;;18.09;75.39;97151.41;5055808;28;20213;-48
2022/06/18 02:09:33;;;;;;;5.18;4.68;;;;;;;18.09;75.06;97156.75;5055874;28;20298;-48
2022/06/18 02:12:02;;;;;;;6.85;3.90;;;;;;;18.06;74.12;97150.94;5056255;28;20285;-50
2022/06/18 02:14:30;;;;;;;3.55;3.25;;;;;;;18.00;75.40;97152.44;5054934;28;20246;-48
2022/06/18 02:16:57;;;;;;;3.65;3.42;;;;;;;17.94;75.95;97158.53;5054861;28;20238;-49
2022/06/18 02:19:24;;;;;;;3.92;3.22;;;;;;;17.88;76.03;97141.34;5055702;28;20202;-49
2022/06/18 02:21:54;;;;;;;3.45;3.25;;;;;;;17.82;77.12;97152.72;5055593;28;20211;-48
2022/06/18 02:24:20;;;;;;;3.20;3.00;;;;;;;17.84;75.00;97153.41;5075232;28;20647;-50
2022/06/18 02:26:49;;;;;;;3.30;3.10;;;;;;;17.83;74.84;97151.72;5055623;28;20290;-48
2022/06/18 02:29:18;;;;;;;5.03;3.40;;;;;;;17.82;76.15;97147.38;5042546;28;20222;-48
2022/06/18 02:31:47;;;;;;;4.18;3.80;;;;;;;17.77;77.69;97141.72;5055392;28;20296;-49
2022/06/18 02:34:16;;;;;;;3.55;3.35;;;;;;;17.78;77.88;97137.22;5055713;28;20211;-49
2022/06/18 02:36:43;;;;;;;4.53;3.55;;;;;;;17.84;77.29;97131.16;5055656;28;20230;-48
2022/06/18 02:39:16;;;;;;;3.35;3.05;;;;;;;17.77;78.09;97136.38;5063488;28;20293;-50
2022/06/18 02:41:44;;;;;;;3.65;3.35;;;;;;;17.71;78.37;97136.25;5076275;28;20640;-50
2022/06/18 02:44:13;;;;;;;3.75;3.40;;;;;;;17.74;77.17;97134.06;5076123;28;20198;-50
2022/06/18 02:46:40;;;;;;;3.78;3.47;;;;;;;17.76;76.23;97139.22;5059145;28;20218;-50
2022/06/18 02:49:09;;;;;;;3.70;3.17;;;;;;;17.73;76.54;97140.41;5065094;28;20219;-50
2022/06/18 02:51:38;;;;;;;4.03;3.50;;;;;;;17.74;76.08;97134.06;5075712;28;20206;-49
2022/06/18 02:54:06;;;;;;;5.10;3.40;;;;;;;17.64;78.03;97144.13;5074787;28;20218;-48
2022/06/18 02:56:32;;;;;;;3.50;3.30;;;;;;;17.61;76.69;97140.97;5074939;28;20317;-50
2022/06/18 02:59:00;;;;;;;3.60;3.30;;;;;;;17.59;77.57;97143.81;5074998;28;20706;-51
2022/06/18 03:01:32;;;;;;;3.55;3.28;;;;;;;17.56;77.98;97144.19;5074558;28;20205;-49
2022/06/18 03:04:00;;;;;;;5.88;3.00;;;;;;;17.63;77.55;97146.97;5075608;28;20195;-49
2022/06/18 03:06:29;;;;;;;3.72;3.47;;;;;;;17.67;76.74;97151.81;5075205;28;20248;-48
2022/06/18 03:08:56;;;;;;;4.25;3.85;;;;;;;17.61;77.60;97149.81;5075576;28;20289;-50
2022/06/18 03:14:08;;;;;;;3.88;3.53;;;;;;;17.46;80.26;97132.84;5075216;28;20212;-49
2022/06/18 03:16:37;;;;;;;4.07;3.60;;;;;;;17.45;80.33;97136.50;5075105;28;20233;-50
2022/06/18 03:19:05;;;;;;;3.85;3.47;;;;;;;17.42;80.38;97140.38;5068820;28;20269;-49
2022/06/18 03:21:36;;;;;;;3.58;3.28;;;;;;;17.49;79.50;97140.50;5044970;28;20207;-49
2022/06/18 03:24:04;;;;;;;4.13;3.47;;;;;;;17.47;80.11;97134.47;5058303;28;20628;-51
2022/06/18 03:26:33;;;;;;;3.78;3.47;;;;;;;17.46;79.96;97135.50;5058605;28;20213;-49
2022/06/18 03:28:59;;;;;;;4.45;4.03;;;;;;;17.42;82.28;97131.50;5058946;28;20207;-48
2022/06/18 03:31:28;;;;;;;4.82;3.80;;;;;;;17.36;83.80;97132.19;5059028;28;20218;-48
2022/06/18 03:34:01;;;;;;;4.65;3.80;;;;;;;17.46;82.01;97135.50;5058784;28;20203;-49
2022/06/18 03:36:29;;;;;;;5.68;4.28;;;;;;;17.47;81.62;97137.16;5058880;28;20227;-48
2022/06/18 03:38:56;;;;;;;4.50;4.05;;;;;;;17.44;82.11;97134.84;5051874;28;20215;-50
2022/06/18 03:41:24;;;;;;;4.38;3.97;;;;;;;17.37;83.50;97128.50;5051979;28;20207;-50
2022/06/18 03:43:52;;;;;;;4.22;3.92;;;;;;;17.43;82.59;97134.00;5038800;28;20219;-50
2022/06/18 03:46:19;;;;;;;4.45;4.05;;;;;;;17.46;82.71;97135.50;5052402;28;20235;-50
2022/06/18 03:48:49;;;;;;;4.93;4.53;;;;;;;17.41;83.88;97137.84;5037507;28;20208;-50
2022/06/18 03:51:18;;;;;;;6.18;4.38;;;;;;;17.45;84.16;97139.19;5038703;28;20543;-50
2022/06/18 03:53:45;;;;;;;4.65;4.30;;;;;;;17.41;85.51;97137.84;5038682;28;20215;-49
2022/06/18 03:56:12;;;;;;;5.30;4.22;;;;;;;17.40;85.51;97139.69;5038045;28;20246;-49
2022/06/18 03:58:40;;;;;;;4.47;4.18;;;;;;;17.41;85.39;97153.91;5038321;28;20218;-49
2022/06/18 04:01:10;;;;;;;5.15;4.18;;;;;;;17.44;85.89;97153.56;5038299;28;20290;-49
2022/06/18 04:03:37;;;;;;;4.63;4.25;;;;;;;17.48;85.88;97156.72;5038154;28;20226;-49
2022/06/18 04:06:05;;;;;;;4.32;4.03;;;;;;;17.49;86.92;97159.22;5038595;28;20586;-48
2022/06/18 04:08:36;;;;;;;4.60;4.15;;;;;;;17.59;85.99;97156.38;5038135;28;20287;-50
2022/06/18 04:11:02;;;;;;;4.15;3.85;;;;;;;17.68;85.15;97156.13;5038485;28;20211;-49
2022/06/18 04:13:29;;;;;;;4.45;4.15;;;;;;;17.66;86.71;97152.81;5038404;28;20321;-49
2022/06/18 04:15:56;;;;;;;4.53;3.88;;;;;;;17.76;86.15;97156.09;5038087;28;20621;-48
2022/06/18 04:18:23;;;;;;;4.40;4.05;;;;;;;18.07;84.68;97157.94;5049429;28;20230;-49
2022/06/18 04:20:49;;;;;;;4.50;4.10;;;;;;;18.17;84.55;97145.16;5027118;28;20200;-51
2022/06/18 04:23:19;;;;;;;4.00;3.67;;;;;;;18.30;83.50;97154.28;5037837;28;20302;-49
2022/06/18 04:25:48;;;;;;;4.25;3.97;;;;;;;18.37;83.47;97159.75;5042879;28;20210;-49
2022/06/18 04:28:24;;;;;;;4.40;4.00;;;;;;;18.50;82.70;97157.28;5058077;28;20219;-50
2022/06/18 04:30:53;;;;;;;4.30;4.00;;;;;;;18.71;81.66;97152.09;5057834;28;20238;-50
2022/06/18 04:33:20;;;;;;;3.95;3.65;;;;;;;18.84;80.56;97149.66;5057462;28;20694;-48
2022/06/18 04:35:46;;;;;;;4.13;3.83;;;;;;;18.92;80.02;97154.09;5057679;28;20510;-49
2022/06/18 04:38:14;;;;;;;4.20;3.80;;;;;;;18.92;81.36;97153.28;5057413;28;20227;-48
2022/06/18 04:40:40;;;;;;;4.25;3.92;;;;;;;19.07;80.82;97156.78;5050783;28;20208;-50
2022/06/18 04:43:10;;;;;;;4.00;3.70;;;;;;;19.29;78.53;97147.84;5038063;28;20219;-49
2022/06/18 04:45:37;;;;;;;4.18;3.90;;;;;;;19.44;77.29;97148.72;5038043;28;20211;-49
2022/06/18 04:48:06;;;;;;;4.30;4.00;;;;;;;19.47;78.34;97153.69;5051781;28;20246;-49
2022/06/18 04:50:35;;;;;;;4.63;4.22;;;;;;;19.38;80.33;97155.59;5057487;28;20290;-49
2022/06/18 04:53:02;;;;;;;4.90;4.20;;;;;;;19.39;80.29;97156.44;5071978;28;20237;-50
2022/06/18 04:55:30;;;;;;;5.20;4.15;;;;;;;19.56;79.45;97149.88;5081555;28;20211;-49
2022/06/18 04:57:58;;;;;;;4.35;4.15;;;;;;;19.55;80.88;97150.09;5075548;28;20227;-50
2022/06/18 05:00:26;;;;;;;4.50;4.10;;;;;;;19.66;79.96;97152.31;5083650;28;20206;-50
2022/06/18 05:02:53;;;;;;;6.10;4.72;;;;;;;19.70;80.64;97157.09;5067064;28;20202;-51
2022/06/18 05:05:21;;;;;;;4.97;4.47;;;;;;;19.75;79.04;97156.53;5070234;28;20290;-49
2022/06/18 05:07:48;;;;;;;5.28;4.55;;;;;;;19.91;77.47;97164.34;5059837;28;20239;-49
2022/06/18 05:10:15;;;;;;;6.53;4.50;;;;;;;20.06;75.19;97162.47;5058665;28;20235;-49
2022/06/18 05:12:44;;;;;;;5.43;4.65;;;;;;;20.10;77.56;97160.25;5062390;28;20244;-49
2022/06/18 05:15:12;;;;;;;4.82;4.40;;;;;;;20.15;78.76;97160.50;5067267;28;20604;-49
2022/06/18 05:17:44;;;;;;;5.10;4.70;;;;;;;20.34;74.61;97165.28;5076915;28;20233;-49
2022/06/18 05:20:14;;;;;;;5.28;4.47;;;;;;;20.52;73.62;97159.47;5066509;28;20203;-50
2022/06/18 05:22:41;;;;;;;5.55;4.60;;;;;;;20.72;74.63;97155.94;5058580;28;20215;-49
2022/06/18 05:25:11;;;;;;;6.00;4.50;;;;;;;20.87;73.85;97157.72;5060281;28;20241;-50
2022/06/18 05:27:39;;;;;;;5.18;4.78;;;;;;;21.06;73.66;97154.34;5059068;28;20211;-49
2022/06/18 05:30:12;;;;;;;5.07;4.68;;;;;;;21.19;73.55;97157.13;5061884;28;20245;-49
2022/06/18 05:32:39;;;;;;;5.53;4.63;;;;;;;21.37;70.22;97154.78;5072665;28;20211;-49
2022/06/18 05:35:08;;;;;;;4.60;4.20;;;;;;;21.56;69.08;97147.84;5091148;28;20191;-49
2022/06/18 05:37:36;;;;;;;6.97;4.32;;;;;;;21.65;68.61;97147.47;5077553;28;20227;-49
2022/06/18 05:40:05;;;;;;;4.13;3.85;;;;;;;21.86;69.65;97151.09;5092881;28;20214;-50
2022/06/18 05:42:33;;;;;;;4.68;4.28;;;;;;;21.96;70.76;97141.66;5098086;28;20217;-51
2022/06/18 05:45:00;;;;;;;4.30;3.80;;;;;;;22.06;69.84;97138.56;5082259;28;20187;-50
2022/06/18 05:47:30;;;;;;;4.85;4.20;;;;;;;22.28;68.04;97137.38;5089166;28;20227;-49
2022/06/18 05:49:57;;;;;;;4.00;3.80;;;;;;;22.56;64.50;97140.75;5078524;28;20191;-49
2022/06/18 05:52:26;;;;;;;4.53;4.22;;;;;;;22.68;62.88;97133.72;5078298;28;20171;-50
2022/06/18 05:54:55;;;;;;;4.07;3.72;;;;;;;22.92;63.40;97128.75;5069073;28;20242;-48
2022/06/18 05:57:23;;;;;;;4.07;3.70;;;;;;;23.26;63.81;97139.28;5066510;28;20281;-49
2022/06/18 05:59:50;;;;;;;5.45;3.88;;;;;;;23.51;62.46;97134.06;5075586;28;20202;-49
2022/06/18 06:02:20;;;;;;;4.25;3.85;;;;;;;23.64;60.38;97134.84;5063958;28;20230;-50
2022/06/18 06:04:47;;;;;;;7.30;3.92;;;;;;;23.90;59.76;97133.09;5056225;28;20648;-50
2022/06/18 06:07:14;;;;;;;4.97;4.07;;;;;;;24.20;59.05;97131.50;5055507;28;20270;-50
2022/06/18 06:12:27;;;;;;;4.20;3.80;;;;;;;24.48;56.41;97123.81;5056261;28;20694;-50
2022/06/18 06:14:55;;;;;;;6.63;3.95;;;;;;;24.62;58.96;97122.69;5056071;28;20207;-49
2022/06/18 06:17:25;;;;;;;4.55;4.25;;;;;;;24.77;56.45;97120.50;5055858;28;20262;-50
2022/06/18 06:19:54;;;;;;;4.20;3.90;;;;;;;24.89;57.39;97119.81;5046018;28;20207;-49
2022/06/18 06:22:20;;;;;;;3.97;3.60;;;;;;;25.03;56.52;97121.34;5069606;28;20210;-49
2022/06/18 06:24:48;;;;;;;3.97;3.67;;;;;;;25.27;56.84;97120.47;5072162;28;20231;-50
2022/06/18 06:27:15;;;;;;;4.53;4.13;;;;;;;25.39;55.00;97118.69;5055641;28;20207;-50
2022/06/18 06:29:42;;;;;;;4.20;3.80;;;;;;;25.58;55.90;97114.97;5055606;28;20637;-48
2022/06/18 06:32:09;;;;;;;4.00;3.70;;;;;;;25.72;55.21;97105.63;5055300;28;20213;-49
2022/06/18 06:34:36;;;;;;;4.57;4.15;;;;;;;25.99;53.98;97114.25;5055064;28;20250;-51
2022/06/18 06:37:04;;;;;;;9.65;4.18;;;;;;;26.30;52.75;97105.09;5055440;28;20325;-49
2022/06/18 06:39:33;;;;;;;9.13;3.80;;;;;;;26.26;51.03;97098.47;5055408;28;20705;-51
2022/06/18 06:42:03;;;;;;;3.78;3.45;;;;;;;26.46;50.00;97099.03;5055451;28;20206;-51
2022/06/18 06:44:30;;;;;;;3.75;3.28;;;;;;;26.62;49.77;97103.78;5055205;28;20286;-49
2022/06/18 06:46:59;;;;;;;3.33;3.13;;;;;;;26.76;49.75;97098.13;5054846;28;20250;-51
2022/06/18 06:49:26;;;;;;;13.93;4.38;;;;;;;26.98;48.52;97101.97;5055545;28;20206;-49
2022/06/18 06:51:54;;;;;;;7.03;3.40;;;;;;;27.13;47.57;97105.03;5055139;28;20576;-49
2022/06/18 06:54:21;;;;;;;8.35;3.58;;;;;;;27.23;47.23;97099.84;5055158;28;20207;-50
2022/06/18 06:59:33;;;;;;;11.20;3.88;;;;;;;27.54;47.49;97094.03;5059230;28;20218;-50
2022/06/18 07:02:02;;;;;;;5.38;3.40;;;;;;;27.61;47.20;97099.34;5059016;28;20624;-49
2022/06/18 07:04:29;;;;;;;4.10;3.50;;;;;;;27.74;45.15;97095.56;5074575;28;20693;-49
2022/06/18 07:06:56;;;;;;;3.55;3.25;;;;;;;27.93;46.30;97091.56;5079213;28;20220;-50
2022/06/18 07:09:22;;;;;;;4.40;3.67;;;;;;;28.15;46.37;97092.59;5077389;28;20238;-50
2022/06/18 07:11:51;;;;;;;3.45;3.20;;;;;;;28.27;45.35;97089.84;5076540;28;20203;-51
2022/06/18 07:14:18;;;;;;;3.65;3.10;;;;;;;28.23;45.34;97084.06;5072469;28;20594;-51
2022/06/18 07:16:50;;;;;;;3.65;3.00;;;;;;;28.15;45.23;97088.00;5059721;28;20235;-50
2022/06/18 07:19:18;;;;;;;3.78;3.30;;;;;;;28.42;46.12;97084.66;5058554;28;20229;-50
2022/06/18 07:21:45;;;;;;;3.17;2.97;;;;;;;28.61;45.65;97095.06;5058930;28;20217;-50
2022/06/18 07:24:11;;;;;;;5.20;3.20;;;;;;;28.65;44.45;97081.81;5057103;28;20226;-49
2022/06/18 07:26:38;;;;;;;3.15;2.88;;;;;;;28.97;44.60;97080.19;5058735;28;20207;-50
2022/06/18 07:29:10;;;;;;;5.80;3.10;;;;;;;29.01;44.09;97088.69;5058640;28;20199;-51
2022/06/18 07:31:36;;;;;;;3.17;2.88;;;;;;;29.07;43.89;97082.22;5058588;28;20199;-49
2022/06/18 07:34:07;;;;;;;4.40;2.92;;;;;;;29.28;43.88;97083.38;5078386;28;20222;-50
2022/06/18 07:36:34;;;;;;;3.40;3.13;;;;;;;29.29;42.04;97083.16;5078403;28;20288;-50
2022/06/18 07:39:01;;;;;;;2.90;2.80;;;;;;;29.38;43.75;97073.44;5078211;28;20226;-51
2022/06/18 07:41:33;;;;;;;2.97;2.70;;;;;;;29.23;40.66;97073.19;5077958;28;20210;-50
2022/06/18 07:43:59;;;;;;;3.30;3.05;;;;;;;29.65;42.28;97066.16;5078069;28;20209;-52
2022/06/18 07:46:27;;;;;;;3.28;2.97;;;;;;;29.62;41.58;97065.84;5077559;28;20324;-49
2022/06/18 07:48:54;;;;;;;3.53;3.00;;;;;;;29.60;41.12;97062.56;5078156;28;20638;-50
2022/06/18 07:51:23;;;;;;;4.22;2.85;;;;;;;29.65;41.21;97059.94;5077937;28;20701;-50
2022/06/18 07:53:51;;;;;;;3.15;2.90;;;;;;;29.72;39.80;97065.19;5077202;28;20213;-49
2022/06/18 07:56:17;;;;;;;3.28;3.00;;;;;;;29.79;42.08;97055.72;5077881;28;21392;-50
2022/06/18 07:58:45;;;;;;;3.00;2.80;;;;;;;29.66;41.99;97061.56;5078165;28;20558;-50
2022/06/18 08:01:12;;;;;;;5.65;3.20;;;;;;;29.49;41.40;97068.97;5074641;28;20218;-49
2022/06/18 08:03:40;;;;;;;3.30;3.00;;;;;;;29.50;43.63;97066.00;5057915;28;20290;-52
2022/06/18 08:06:09;;;;;;;4.60;2.97;;;;;;;29.51;40.59;97069.56;5057583;28;20538;-50
2022/06/18 08:08:37;;;;;;;2.80;2.70;;;;;;;29.61;41.70;97058.78;5057776;28;20214;-50
2022/06/18 08:11:06;;;;;;;3.40;3.20;;;;;;;29.74;39.15;97054.84;5057290;28;20303;-50
2022/06/18 08:13:33;;;;;;;3.05;2.85;;;;;;;30.07;38.86;97052.81;5057195;28;20214;-50
2022/06/18 08:15:59;;;;;;;3.65;3.10;;;;;;;29.73;38.51;97050.44;5057258;28;20622;-50
2022/06/18 08:18:26;;;;;;;5.05;3.28;;;;;;;29.76;40.04;97049.97;5057147;28;20235;-49
2022/06/18 08:20:52;;;;;;;3.30;3.10;;;;;;;29.80;40.16;97045.63;5056754;28;20203;-50
2022/06/18 08:23:20;;;;;;;4.03;3.00;;;;;;;30.15;39.09;97037.88;5057064;28;20286;-50
2022/06/18 08:25:49;;;;;;;3.35;3.05;;;;;;;30.44;39.06;97035.72;5063697;28;20631;-52
2022/06/18 08:28:16;;;;;;;3.10;2.90;;;;;;;30.73;41.07;97038.97;5057068;28;20199;-50
2022/06/18 08:30:43;;;;;;;4.82;2.92;;;;;;;30.24;38.94;97025.41;5057265;28;20242;-51
2022/06/18 08:33:11;;;;;;;3.50;3.20;;;;;;;30.76;37.60;97032.97;5056968;28;20211;-51
2022/06/18 08:35:39;;;;;;;3.58;2.88;;;;;;;30.55;37.36;97027.38;5056831;28;20214;-51
2022/06/18 08:38:07;;;;;;;3.80;3.25;;;;;;;30.88;38.32;97019.97;5069311;28;20261;-49
2022/06/18 08:40:49;;;;;;;4.28;3.30;;;;;;;30.87;39.93;97016.41;5077419;28;20305;-49
2022/06/18 08:43:37;;;;;;;3.58;3.38;;;;;;;31.20;38.21;97022.66;5076986;28;20206;-50
2022/06/18 08:46:11;;;;;;;4.15;3.25;;;;;;;31.25;38.66;97020.78;5076404;28;20271;-51
2022/06/18 08:48:53;;;;;;;3.17;2.97;;;;;;;31.22;37.03;97015.84;5058372;28;20293;-49
2022/06/18 08:51:28;;;;;;;2.90;2.70;;;;;;;31.49;35.80;97008.34;5056437;28;20230;-51
2022/06/18 08:54:06;;;;;;;2.92;2.72;;;;;;;31.52;39.35;97010.56;5055050;28;20261;-50
2022/06/18 08:56:42;;;;;;;4.78;3.10;;;;;;;31.37;36.55;97002.28;5056144;28;20206;-51
2022/06/18 08:59:20;;;;;;;4.38;3.00;;;;;;;31.49;38.10;96997.41;5056148;28;20310;-50
2022/06/18 09:01:51;;;;;;;3.28;2.90;;;;;;;31.93;36.97;96991.56;5055847;28;20679;-49
2022/06/18 09:04:24;;;;;;;3.60;3.30;;;;;;;31.68;37.33;96986.00;5056007;28;20207;-48
2022/06/18 09:07:31;;;;;;;3.55;3.13;;;;;;;31.61;34.88;96990.91;5056323;28;20203;-50
2022/06/18 09:10:04;;;;;;;4.85;3.03;;;;;;;32.10;37.09;96983.94;5076017;28;20202;-49
2022/06/18 09:12:33;;;;;;;3.85;3.40;;;;;;;31.97;36.62;96987.19;5075941;28;20198;-50
2022/06/18 09:15:05;;;;;;;3.92;3.13;;;;;;;32.25;36.33;96983.97;5075872;28;20289;-51
2022/06/18 09:17:36;;;;;;;3.58;3.10;;;;;;;32.26;36.65;96977.41;5075808;28;20706;-50
2022/06/18 09:20:07;;;;;;;3.40;3.10;;;;;;;32.21;37.75;96980.13;5052872;28;20424;-50
2022/06/18 09:22:38;;;;;;;3.00;2.80;;;;;;;32.25;34.51;96978.50;5067152;28;20207;-51
2022/06/18 09:25:09;;;;;;;4.40;3.10;;;;;;;32.60;34.94;96971.41;5073469;28;20199;-49
2022/06/18 09:27:41;;;;;;;3.47;2.90;;;;;;;32.52;35.61;96976.31;5091990;28;20213;-51
2022/06/18 09:30:14;;;;;;;3.92;2.67;;;;;;;32.46;34.21;96976.59;5082251;28;20272;-49
2022/06/18 09:32:45;;;;;;;3.75;2.80;;;;;;;32.34;33.41;96967.84;5075416;28;20293;-50
2022/06/18 09:35:15;;;;;;;2.95;2.75;;;;;;;32.50;37.75;96970.28;5075211;28;20694;-50
2022/06/18 09:37:47;;;;;;;3.35;3.00;;;;;;;32.66;32.98;96981.28;5075235;28;20289;-50
2022/06/18 09:40:17;;;;;;;5.32;2.60;;;;;;;32.80;33.39;96965.94;5075280;28;20292;-51
2022/06/18 09:42:47;;;;;;;4.47;2.72;;;;;;;32.84;33.24;96962.34;5075560;28;20252;-49
2022/06/18 09:45:22;;;;;;;2.83;2.67;;;;;;;32.69;32.85;96967.03;5057373;28;20211;-51
2022/06/18 09:47:49;;;;;;;2.88;2.67;;;;;;;32.74;33.22;96962.34;5055079;28;20325;-51
2022/06/18 09:50:20;;;;;;;2.95;2.70;;;;;;;32.69;31.76;96964.28;5054859;28;20221;-52
2022/06/18 09:52:49;;;;;;;3.03;2.80;;;;;;;32.87;31.98;96960.97;5055135;28;20222;-51
2022/06/18 09:55:19;;;;;;;3.67;3.10;;;;;;;32.77;32.16;96959.06;5055092;28;20701;-50
2022/06/18 09:57:49;;;;;;;3.92;2.42;;;;;;;33.16;31.76;96953.78;5054918;28;20203;-50
2022/06/18 10:00:21;;;;;;;2.65;2.55;;;;;;;33.18;33.26;96946.13;5054970;28;20229;-50
2022/06/18 10:02:51;;;;;;;3.25;2.80;;;;;;;33.37;30.12;96952.63;5070338;28;20210;-50
2022/06/18 10:08:08;;;;;;;3.38;2.88;;;;;;;33.14;31.63;96944.22;5074764;28;20214;-52
2022/06/18 10:10:38;;;;;;;3.80;3.00;;;;;;;33.20;32.29;96943.09;5074508;28;20650;-51
2022/06/18 10:13:07;;;;;;;3.10;2.80;;;;;;;33.40;32.09;96937.53;5074670;28;20242;-50
2022/06/18 10:15:36;;;;;;;5.40;2.83;;;;;;;33.46;31.29;96934.50;5074922;28;20229;-50
2022/06/18 10:18:22;;;;;;;4.13;2.92;;;;;;;33.72;35.07;96939.88;5074713;28;20293;-50
2022/06/18 10:20:54;;;;;;;2.92;2.72;;;;;;;33.80;32.74;96931.06;5043734;28;20206;-51
2022/06/18 10:23:38;;;;;;;2.85;2.65;;;;;;;33.93;32.37;96930.41;5053731;28;20211;-50
2022/06/18 10:26:11;;;;;;;3.38;2.60;;;;;;;34.04;32.47;96923.75;5049724;28;20239;-51
2022/06/18 10:28:44;;;;;;;2.58;2.38;;;;;;;33.81;31.37;96927.19;5056223;28;20286;-51
2022/06/18 10:31:16;;;;;;;3.58;2.60;;;;;;;33.87;30.56;96924.13;5055528;28;20535;-51
2022/06/18 10:33:49;;;;;;;4.85;2.63;;;;;;;33.97;31.57;96921.34;5060498;28;20202;-50
2022/06/18 10:36:21;;;;;;;3.15;2.88;;;;;;;34.18;30.79;96911.06;5089577;28;20446;-50
2022/06/18 10:39:00;;;;;;;2.67;2.58;;;;;;;34.34;29.16;96915.31;5076799;28;20219;-51
2022/06/18 10:41:29;;;;;;;4.38;2.50;;;;;;;34.41;29.91;96910.28;5074516;28;20285;-51
2022/06/18 10:44:05;;;;;;;2.65;2.45;;;;;;;34.62;33.41;96910.09;5074282;28;20259;-50
2022/06/18 10:46:33;;;;;;;3.00;2.38;;;;;;;34.39;32.37;96906.19;5073985;28;20198;-50
2022/06/18 10:49:01;;;;;;;8.25;3.00;;;;;;;34.55;29.77;96906.88;5073969;28;20597;-50
2022/06/18 10:51:30;;;;;;;4.15;2.53;;;;;;;34.64;29.05;96905.19;5074477;28;20355;-49
2022/06/18 10:54:00;;;;;;;2.72;2.53;;;;;;;34.89;29.07;96899.41;5074439;28;20213;-49
2022/06/18 10:56:29;;;;;;;2.75;2.33;;;;;;;34.86;29.90;96905.50;5074568;28;20206;-51
2022/06/18 10:58:59;;;;;;;2.70;2.50;;;;;;;34.90;29.93;96899.09;5074065;28;20769;-50
2022/06/18 11:01:27;;;;;;;3.13;2.30;;;;;;;34.85;28.55;96899.19;5073457;28;20217;-50
2022/06/18 11:03:59;;;;;;;2.92;2.00;;;;;;;34.89;27.89;96889.25;5074673;28;20213;-50
2022/06/18 11:06:27;;;;;;;2.58;1.95;;;;;;;34.63;27.55;96885.13;5074255;28;20202;-52
2022/06/18 11:08:56;;;;;;;2.30;2.10;;;;;;;35.00;26.49;96878.13;5074403;28;20588;-51
2022/06/18 11:11:25;;;;;;;3.00;2.60;;;;;;;34.91;28.19;96877.94;5074607;28;20221;-49
2022/06/18 11:13:52;;;;;;;2.05;1.83;;;;;;;34.93;26.70;96873.78;5061046;28;20286;-52
2022/06/18 11:16:20;;;;;;;2.42;2.00;;;;;;;34.80;28.02;96868.16;5054335;28;20207;-50
2022/06/18 11:18:50;;;;;;;3.22;2.40;;;;;;;35.10;28.66;96864.25;5053647;28;20558;-51
2022/06/18 11:21:26;;;;;;;2.78;2.30;;;;;;;35.15;25.41;96870.53;5048732;28;20206;-52
2022/06/18 11:23:56;;;;;;;2.65;2.10;;;;;;;35.19;26.94;96863.34;5074349;28;20627;-50
2022/06/18 11:26:24;;;;;;;2.45;2.08;;;;;;;34.95;24.65;96855.09;5058153;28;20203;-51
2022/06/18 11:28:53;;;;;;;3.97;1.75;;;;;;;35.05;25.21;96865.13;5054323;28;20301;-51
2022/06/18 11:31:22;;;;;;;4.88;2.25;;;;;;;35.19;25.88;96857.00;5053830;28;20648;-51
2022/06/18 11:33:56;;;;;;;5.40;2.15;;;;;;;35.24;24.71;96849.53;5054446;28;20298;-52
2022/06/18 11:36:35;;;;;;;2.38;1.75;;;;;;;35.45;26.01;96839.06;5060344;28;20215;-52
2022/06/18 11:39:02;;;;;;;4.53;1.98;;;;;;;35.42;23.75;96840.47;5063416;28;20250;-51
2022/06/18 11:41:33;;;;;;;4.80;2.20;;;;;;;35.60;24.45;96832.53;5061584;28;20276;-50
2022/06/18 11:44:02;;;;;;;5.32;2.45;;;;;;;35.84;25.35;96827.78;5058190;28;20294;-50
2022/06/18 11:46:32;;;;;;;4.88;2.70;;;;;;;35.87;23.81;96821.66;5057257;28;20738;-52
2022/06/18 11:49:04;;;;;;;4.28;2.35;;;;;;;35.81;25.31;96817.38;5057882;28;20225;-51
2022/06/18 11:51:36;;;;;;;13.77;3.25;;;;;;;35.55;23.04;96818.81;5061371;28;20202;-51
2022/06/18 11:54:10;;;;;;;9.95;2.92;;;;;;;35.50;24.03;96816.97;5078165;28;20245;-51
2022/06/18 11:56:49;;;;;;;9.43;2.67;;;;;;;35.57;24.06;96822.13;5077948;28;20210;-52
2022/06/18 11:59:20;;;;;;;5.40;2.65;;;;;;;35.57;24.03;96811.13;5078668;28;20218;-51